createdAt,value
2023-06-27T00:00:15.509Z,88.10
2023-06-27T00:05:24.915Z,89.18
2023-06-27T00:10:26.726Z,89.75
2023-06-27T00:15:30.420Z,90.82
2023-06-27T00:20:35.675Z,90.25
2023-06-27T00:25:37.689Z,90.97
2023-06-27T00:30:42.444Z,91.99
2023-06-27T00:35:47.435Z,92.94
2023-06-27T00:40:49.458Z,93.60
2023-06-27T00:45:51.636Z,93.64
2023-06-27T00:50:58.733Z,94.46
2023-06-27T00:56:05.093Z,95.02
2023-06-27T01:01:07.136Z,95.35
2023-06-27T01:06:28.983Z,95.85
2023-06-27T01:11:46.450Z,96.02
2023-06-27T01:16:49.225Z,95.38
2023-06-27T01:21:54.125Z,95.90
2023-06-27T01:27:01.877Z,96.18
2023-06-27T01:32:11.228Z,96.56
2023-06-27T01:37:25.352Z,97.30
2023-06-27T01:42:36.092Z,97.76
2023-06-27T01:47:43.209Z,98.46
2023-06-27T01:52:45.774Z,98.79
2023-06-27T01:57:51.973Z,98.82
2023-06-27T02:02:54.034Z,99.24
2023-06-27T02:07:55.809Z,99.68
2023-06-27T02:13:05.046Z,100.00
2023-06-27T02:18:09.125Z,99.89
2023-06-27T02:23:10.865Z,100.00
2023-06-27T02:28:14.815Z,100.00
2023-06-27T02:33:18.634Z,100.00
2023-06-27T02:38:22.764Z,100.00
2023-06-27T02:43:24.757Z,100.00
2023-06-27T02:48:26.592Z,100.00
2023-06-27T02:53:28.463Z,100.00
2023-06-27T02:58:31.551Z,100.00
2023-06-27T03:03:34.940Z,100.00
2023-06-27T03:08:40.606Z,100.00
2023-06-27T03:13:54.596Z,100.00
2023-06-27T03:18:56.808Z,100.00
2023-06-27T03:23:58.654Z,100.00
2023-06-27T03:29:04.619Z,100.00
2023-06-27T03:34:06.891Z,100.00
2023-06-27T03:39:09.134Z,100.00
2023-06-27T03:44:13.820Z,100.00
2023-06-27T03:49:17.916Z,100.00
2023-06-27T03:54:22.535Z,100.00
2023-06-27T03:59:26.822Z,100.00
2023-06-27T04:04:29.341Z,100.00
2023-06-27T04:09:31.225Z,100.00
2023-06-27T04:14:33.276Z,100.00
2023-06-27T04:19:37.357Z,100.00
2023-06-27T04:24:45.200Z,100.00
2023-06-27T04:29:52.023Z,100.00
2023-06-27T04:34:53.736Z,100.00
2023-06-27T04:39:55.433Z,100.00
2023-06-27T04:45:00.184Z,100.00
2023-06-27T04:50:01.871Z,100.00
2023-06-27T04:55:03.878Z,100.00
2023-06-27T05:00:11.010Z,100.00
2023-06-27T05:05:15.800Z,100.00
2023-06-27T05:10:17.568Z,100.00
2023-06-27T05:15:19.490Z,100.00
2023-06-27T05:20:24.002Z,100.00
2023-06-27T05:25:28.294Z,100.00
2023-06-27T05:30:30.992Z,100.00
2023-06-27T05:35:34.854Z,100.00
2023-06-27T05:40:39.529Z,100.00
2023-06-27T05:45:47.736Z,100.00
2023-06-27T05:50:52.174Z,100.00
2023-06-27T05:55:56.143Z,100.00
2023-06-27T06:00:57.901Z,100.00
2023-06-27T06:05:59.619Z,100.00
2023-06-27T06:11:05.567Z,100.00
2023-06-27T06:16:12.764Z,100.00
2023-06-27T06:21:17.667Z,100.00
2023-06-27T06:26:21.635Z,100.00
2023-06-27T06:31:25.855Z,100.00
2023-06-27T06:36:28.556Z,100.00
2023-06-27T06:41:32.909Z,100.00
2023-06-27T06:46:36.588Z,100.00
2023-06-27T06:51:38.500Z,99.66
2023-06-27T06:56:40.228Z,98.31
2023-06-27T07:01:47.108Z,97.24
2023-06-27T07:06:52.237Z,95.71
2023-06-27T07:11:58.399Z,93.90
2023-06-27T07:17:01.162Z,91.21
2023-06-27T07:22:07.920Z,90.38
2023-06-27T07:27:14.285Z,89.47
2023-06-27T07:32:22.764Z,85.75
2023-06-27T07:37:31.233Z,83.94
2023-06-27T07:42:39.653Z,83.42
2023-06-27T07:47:43.363Z,83.63
2023-06-27T07:53:24.216Z,80.12
2023-06-27T07:58:43.067Z,79.50
2023-06-27T08:04:04.141Z,77.63
2023-06-27T08:09:17.394Z,75.68
2023-06-27T08:14:26.034Z,73.21
2023-06-27T08:19:32.555Z,73.47
2023-06-27T08:24:48.494Z,70.48
2023-06-27T08:36:24.374Z,72.55
2023-06-27T08:41:28.465Z,68.28
2023-06-27T08:46:33.813Z,65.64
2023-06-27T08:51:38.858Z,65.10
2023-06-27T08:56:44.072Z,65.06
2023-06-27T09:01:49.257Z,65.88
2023-06-27T09:06:53.777Z,63.59
2023-06-27T09:11:58.308Z,64.32
2023-06-27T09:17:04.263Z,63.04
2023-06-27T09:22:14.620Z,62.96
2023-06-27T09:27:32.099Z,60.59
2023-06-27T09:32:36.413Z,61.23
2023-06-27T09:42:55.757Z,63.67
2023-06-27T09:48:00.767Z,61.84
2023-06-27T09:53:06.070Z,60.96
2023-06-27T09:58:10.002Z,59.93
2023-06-27T10:03:12.313Z,59.46
2023-06-27T10:08:19.413Z,58.10
2023-06-27T10:13:23.666Z,59.78
2023-06-27T10:18:25.387Z,59.09
2023-06-27T10:23:27.244Z,58.55
2023-06-27T10:28:32.811Z,57.51
2023-06-27T10:33:43.165Z,56.68
2023-06-27T10:38:47.798Z,56.36
2023-06-27T10:43:51.208Z,56.77
2023-06-27T10:48:56.641Z,56.75
2023-06-27T10:54:12.774Z,57.36
2023-06-27T10:59:19.022Z,56.91
2023-06-27T11:04:26.777Z,58.15
2023-06-27T11:09:30.824Z,59.47
2023-06-27T11:14:40.205Z,60.21
2023-06-27T11:19:44.778Z,60.73
2023-06-27T11:24:46.925Z,61.39
2023-06-27T11:29:48.744Z,60.63
2023-06-27T11:34:50.517Z,56.16
2023-06-27T11:39:54.392Z,59.42
2023-06-27T11:44:56.175Z,60.17
2023-06-27T11:50:08.848Z,61.02
2023-06-27T11:55:10.677Z,61.64
2023-06-27T12:00:19.713Z,58.86
2023-06-27T12:05:23.938Z,56.64
2023-06-27T12:10:25.814Z,56.99
2023-06-27T12:15:29.873Z,56.18
2023-06-27T12:20:42.496Z,55.97
2023-06-27T12:25:44.558Z,56.59
2023-06-27T12:30:46.377Z,55.31
2023-06-27T12:35:50.503Z,52.80
2023-06-27T12:40:52.233Z,50.32
2023-06-27T12:46:03.794Z,48.80
2023-06-27T12:51:05.589Z,51.60
2023-06-27T12:56:07.651Z,49.16
2023-06-27T13:01:11.316Z,51.86
2023-06-27T13:06:13.200Z,52.65
2023-06-27T13:11:19.687Z,50.35
2023-06-27T13:16:22.425Z,50.22
2023-06-27T13:21:24.282Z,49.28
2023-06-27T13:26:28.216Z,50.68
2023-06-27T13:31:30.093Z,49.50
2023-06-27T13:36:34.174Z,49.58
2023-06-27T13:41:35.977Z,52.10
2023-06-27T13:46:38.375Z,51.18
2023-06-27T13:51:40.452Z,48.93
2023-06-27T13:56:42.260Z,50.13
2023-06-27T14:01:44.024Z,50.54
2023-06-27T14:06:53.176Z,50.09
2023-06-27T14:11:55.023Z,51.07
2023-06-27T14:16:57.744Z,51.31
2023-06-27T14:21:59.537Z,49.20
2023-06-27T14:27:11.859Z,50.92
2023-06-27T14:32:18.290Z,47.44
2023-06-27T14:37:20.250Z,48.88
2023-06-27T14:42:24.333Z,49.00
2023-06-27T14:47:28.426Z,47.20
2023-06-27T14:52:32.574Z,46.11
2023-06-27T14:57:34.484Z,43.79
2023-06-27T15:02:36.502Z,44.34
2023-06-27T15:07:41.783Z,42.79
2023-06-27T15:12:43.724Z,45.15
2023-06-27T15:17:47.655Z,44.96
2023-06-27T15:22:49.697Z,45.55
2023-06-27T15:27:54.013Z,43.12
2023-06-27T15:33:03.324Z,43.00
2023-06-27T15:38:07.288Z,40.63
2023-06-27T15:43:12.230Z,42.74
2023-06-27T15:48:14.137Z,43.69
2023-06-27T15:53:21.233Z,43.13
2023-06-27T15:58:23.167Z,43.45
2023-06-27T16:03:25.084Z,43.77
2023-06-27T16:08:31.576Z,42.23
2023-06-27T16:13:33.500Z,42.86
2023-06-27T16:18:39.968Z,40.91
2023-06-27T16:23:43.893Z,41.84
2023-06-27T16:28:45.737Z,42.39
2023-06-27T16:33:47.588Z,43.04
2023-06-27T16:38:49.811Z,42.77
2023-06-27T16:43:53.664Z,44.58
2023-06-27T16:48:58.482Z,45.44
2023-06-27T16:54:00.324Z,45.62
2023-06-27T16:59:02.070Z,47.08
2023-06-27T17:04:06.140Z,43.86
2023-06-27T17:09:08.019Z,40.20
2023-06-27T17:14:10.108Z,38.88
2023-06-27T17:19:12.062Z,39.10
2023-06-27T17:24:13.879Z,41.34
2023-06-27T17:29:18.643Z,43.90
2023-06-27T17:34:20.485Z,47.38
2023-06-27T17:39:24.531Z,48.79
2023-06-27T17:44:31.437Z,51.52
2023-06-27T17:49:33.290Z,51.22
2023-06-27T17:54:39.981Z,53.08
2023-06-27T17:59:41.849Z,53.73
2023-06-27T18:04:45.957Z,53.98
2023-06-27T18:09:47.765Z,55.46
2023-06-27T18:14:49.953Z,56.60
2023-06-27T18:19:52.003Z,57.63
2023-06-27T18:24:57.436Z,58.00
2023-06-27T18:29:59.332Z,58.32
2023-06-27T18:35:01.346Z,59.30
2023-06-27T18:40:05.387Z,60.45
2023-06-27T18:45:07.558Z,61.63
2023-06-27T18:50:14.496Z,61.25
2023-06-27T18:55:20.158Z,63.41
2023-06-27T19:00:24.211Z,63.47
2023-06-27T19:05:26.030Z,63.27
2023-06-27T19:10:33.135Z,65.40
2023-06-27T19:15:35.639Z,66.41
2023-06-27T19:20:38.130Z,67.17
2023-06-27T19:25:42.883Z,67.83
2023-06-27T19:30:44.891Z,68.58
2023-06-27T19:35:46.872Z,68.79
2023-06-27T19:40:48.708Z,68.59
2023-06-27T19:45:52.782Z,68.99
2023-06-27T19:50:54.623Z,69.82
2023-06-27T19:55:56.468Z,69.95
2023-06-27T20:00:58.524Z,70.21
2023-06-27T20:06:03.418Z,71.91
2023-06-27T20:11:05.145Z,72.59
2023-06-27T20:16:07.030Z,73.30
2023-06-27T20:21:08.868Z,74.10
2023-06-27T20:26:13.310Z,74.99
2023-06-27T20:31:18.073Z,75.75
2023-06-27T20:36:19.903Z,75.88
2023-06-27T20:41:21.881Z,77.62
2023-06-27T20:46:23.803Z,77.46
2023-06-27T20:51:25.824Z,77.45
2023-06-27T20:56:27.850Z,78.39
2023-06-27T21:01:43.129Z,78.04
2023-06-27T21:06:47.358Z,79.87
2023-06-27T21:11:51.160Z,80.60
2023-06-27T21:16:59.078Z,80.34
2023-06-27T21:22:00.883Z,80.98
2023-06-27T21:27:03.196Z,81.80
2023-06-27T21:32:07.671Z,82.60
2023-06-27T21:37:16.548Z,82.73
2023-06-27T21:42:25.167Z,83.44
2023-06-27T21:47:27.268Z,82.59
2023-06-27T21:52:29.111Z,84.56
2023-06-27T21:57:33.137Z,83.06
2023-06-27T22:02:40.078Z,84.19
2023-06-27T22:07:42.048Z,84.59
2023-06-27T22:12:44.282Z,85.55
2023-06-27T22:17:46.080Z,85.65
2023-06-27T22:22:47.794Z,86.82
2023-06-27T22:27:55.054Z,87.49
2023-06-27T22:32:59.168Z,88.91
2023-06-27T22:38:06.384Z,89.67
2023-06-27T22:43:12.818Z,89.85
2023-06-27T22:48:14.563Z,90.26
2023-06-27T22:53:16.760Z,91.63
2023-06-27T22:58:21.011Z,91.87
2023-06-27T23:03:22.762Z,91.67
2023-06-27T23:08:27.040Z,92.30
2023-06-27T23:13:28.758Z,93.01
2023-06-27T23:18:35.180Z,93.01
2023-06-27T23:23:41.403Z,94.24
2023-06-27T23:29:01.312Z,94.51
2023-06-27T23:34:05.315Z,94.66
2023-06-27T23:39:10.889Z,95.04
2023-06-27T23:44:18.077Z,94.95
2023-06-27T23:49:22.488Z,95.61
2023-06-27T23:54:29.130Z,95.65
2023-06-27T23:59:32.692Z,96.49
